Time;durP1;ratioP1;P1;durP2;ratioP2;P2;SDS_P1;SDS_P2;PMS_P1;PMS_P2;Temp;Humidity;BMP_temperature;BMP_pressure;BME280_temperature;BME280_humidity;BME280_pressure;Samples;Min_cycle;Max_cycle;Signal;HPM_P1;HPM_P2
2023/06/07 00:02:01;;;;;;;;;;;;;;;20.27;68.71;97156.50;624817;227;64924;-64
2023/06/07 00:04:30;;;;;;;;;;;;;;;20.28;68.66;97166.14;624842;227;66826;-64
2023/06/07 00:07:00;;;;;;;;;;;;;;;20.26;68.66;97162.92;624789;227;65003;-64
2023/06/07 00:09:26;;;;;;;;;;;;;;;20.26;68.66;97155.71;624737;226;67386;-64
2023/06/07 00:11:54;;;;;;;;;;;;;;;20.27;68.63;97159.17;624728;227;67369;-64
2023/06/07 00:14:23;;;;;;;;;;;;;;;20.27;68.67;97161.84;625856;226;65069;-63
2023/06/07 00:16:53;;;;;;;;;;;;;;;20.27;68.70;97160.00;625991;226;67144;-64
2023/06/07 00:19:21;;;;;;;;;;;;;;;20.25;68.67;97162.12;625773;226;65002;-64
2023/06/07 00:21:51;;;;;;;;;;;;;;;20.27;68.68;97161.84;625947;226;65039;-64
2023/06/07 00:24:19;;;;;;;;;;;;;;;20.27;68.69;97156.50;625925;226;67225;-64
2023/06/07 00:26:47;;;;;;;;;;;;;;;20.26;68.69;97161.05;625929;226;64993;-64
2023/06/07 00:29:15;;;;;;;;;;;;;;;20.27;68.68;97167.18;625993;226;62810;-64
2023/06/07 00:31:43;;;;;;;;;;;;;;;20.26;68.67;97162.92;625933;226;66793;-64
2023/06/07 00:34:10;;;;;;;;;;;;;;;20.27;68.71;97161.84;625909;226;68011;-64
2023/06/07 00:36:38;;;;;;;;;;;;;;;20.26;68.66;97170.92;625879;226;65041;-64
2023/06/07 00:39:05;;;;;;;;;;;;;;;20.26;68.68;97166.39;625934;226;67326;-64
2023/06/07 00:41:33;;;;;;;;;;;;;;;20.25;68.68;97164.00;625976;226;66878;-64
2023/06/07 00:44:02;;;;;;;;;;;;;;;20.26;68.66;97170.92;625921;226;62985;-64
2023/06/07 00:46:30;;;;;;;;;;;;;;;20.26;68.68;97171.72;625945;226;67134;-63
2023/06/07 00:48:58;;;;;;;;;;;;;;;20.26;68.67;97170.92;625891;225;64666;-60
2023/06/07 00:51:30;;;;;;;;;;;;;;;20.26;68.67;97170.92;625936;226;65241;-60
2023/06/07 00:53:59;;;;;;;;;;;;;;;20.25;68.69;97167.46;625994;226;67096;-61
2023/06/07 00:56:28;;;;;;;;;;;;;;;20.25;68.68;97169.33;625810;226;67021;-62
2023/06/07 00:58:55;;;;;;;;;;;;;;;20.25;68.69;97164.00;625923;226;65044;-59
2023/06/07 01:01:23;;;;;;;;;;;;;;;20.25;68.70;97161.33;625906;226;65005;-59
2023/06/07 01:03:53;;;;;;;;;;;;;;;20.25;68.68;97161.33;625858;225;67793;-61
2023/06/07 01:06:26;;;;;;;;;;;;;;;20.25;68.69;97158.66;625932;226;62702;-59
2023/06/07 01:08:54;;;;;;;;;;;;;;;20.24;68.68;97160.50;625766;226;65079;-62
2023/06/07 01:11:23;;;;;;;;;;;;;;;20.24;68.68;97155.16;625914;226;64873;-63
2023/06/07 01:13:51;;;;;;;;;;;;;;;20.25;68.67;97150.66;625901;226;62374;-63
2023/06/07 01:16:18;;;;;;;;;;;;;;;20.25;68.67;97150.66;625896;226;64971;-63
2023/06/07 01:18:46;;;;;;;;;;;;;;;20.24;68.65;97152.49;625928;226;65496;-63
2023/06/07 01:21:15;;;;;;;;;;;;;;;20.25;68.63;97155.98;625968;226;65147;-63
2023/06/07 01:23:43;;;;;;;;;;;;;;;20.24;68.65;97155.16;625919;226;67966;-63
2023/06/07 01:26:10;;;;;;;;;;;;;;;20.24;68.66;97143.69;625917;226;67200;-63
2023/06/07 01:28:41;;;;;;;;;;;;;;;20.25;68.65;97147.98;625914;226;65080;-63
2023/06/07 01:31:08;;;;;;;;;;;;;;;20.24;68.62;97141.82;625904;226;67265;-63
2023/06/07 01:33:36;;;;;;;;;;;;;;;20.24;68.62;97154.37;625989;226;64982;-63
2023/06/07 01:36:05;;;;;;;;;;;;;;;20.25;68.61;97150.66;625950;226;62911;-63
2023/06/07 01:38:33;;;;;;;;;;;;;;;20.24;68.60;97152.49;625954;226;67203;-63
2023/06/07 01:41:02;;;;;;;;;;;;;;;20.24;68.63;97157.83;625934;226;66858;-63
2023/06/07 01:43:30;;;;;;;;;;;;;;;20.25;68.61;97158.66;625967;226;62821;-63
2023/06/07 01:45:58;;;;;;;;;;;;;;;20.24;68.62;97154.37;625951;226;66681;-63
2023/06/07 01:48:26;;;;;;;;;;;;;;;20.24;68.61;97159.70;625987;226;67092;-63
2023/06/07 01:50:54;;;;;;;;;;;;;;;20.24;68.60;97162.38;625924;226;65116;-63
2023/06/07 01:53:21;;;;;;;;;;;;;;;20.24;68.60;97157.03;625963;226;67173;-63
2023/06/07 01:55:52;;;;;;;;;;;;;;;20.23;68.62;97152.77;625899;226;65653;-63
2023/06/07 01:58:21;;;;;;;;;;;;;;;20.23;68.62;97142.89;625932;225;65271;-63
2023/06/07 02:00:50;;;;;;;;;;;;;;;20.24;68.57;97146.36;625819;226;67333;-63
2023/06/07 02:03:22;;;;;;;;;;;;;;;20.22;68.62;97149.31;625938;226;65679;-63
2023/06/07 02:05:52;;;;;;;;;;;;;;;20.23;68.58;97150.91;625772;226;62878;-63
2023/06/07 02:08:34;;;;;;;;;;;;;;;20.23;68.58;97152.77;625957;226;67946;-63
2023/06/07 02:11:02;;;;;;;;;;;;;;;20.22;68.61;97149.31;625908;226;66923;-63
2023/06/07 02:13:34;;;;;;;;;;;;;;;20.23;68.62;97152.77;625922;226;65042;-64
2023/06/07 02:16:09;;;;;;;;;;;;;;;20.23;68.62;97150.11;625788;225;67863;-63
2023/06/07 02:18:37;;;;;;;;;;;;;;;20.23;68.64;97147.44;625671;226;67380;-63
2023/06/07 02:21:02;;;;;;;;;;;;;;;20.22;68.64;97149.31;625874;225;63857;-63
2023/06/07 02:23:29;;;;;;;;;;;;;;;20.22;68.65;97153.84;625947;226;64804;-64
2023/06/07 02:25:57;;;;;;;;;;;;;;;20.22;68.69;97153.84;625912;226;66902;-61
2023/06/07 02:28:24;;;;;;;;;;;;;;;20.22;68.74;97149.31;625962;226;65024;-61
2023/06/07 02:30:53;;;;;;;;;;;;;;;20.21;68.73;97150.35;625916;226;67258;-61
2023/06/07 02:33:21;;;;;;;;;;;;;;;20.22;68.73;97148.52;625881;226;66686;-61
2023/06/07 02:35:49;;;;;;;;;;;;;;;20.21;68.73;97146.89;624986;226;65616;-61
2023/06/07 02:38:17;;;;;;;;;;;;;;;20.22;68.78;97149.31;618562;226;69385;-64
2023/06/07 02:40:45;;;;;;;;;;;;;;;20.22;68.75;97151.18;618797;229;67286;-61
2023/06/07 02:43:14;;;;;;;;;;;;;;;20.22;68.74;97153.84;618851;229;64981;-60
2023/06/07 02:45:41;;;;;;;;;;;;;;;20.22;68.75;97153.84;618811;229;67861;-61
2023/06/07 02:48:09;;;;;;;;;;;;;;;20.21;68.79;97142.34;618782;229;67034;-61
2023/06/07 02:50:37;;;;;;;;;;;;;;;20.22;68.79;97151.18;618806;229;62813;-61
2023/06/07 02:53:06;;;;;;;;;;;;;;;20.22;68.74;97151.18;618820;229;65989;-60
2023/06/07 02:55:34;;;;;;;;;;;;;;;20.21;68.73;97146.89;618773;228;64921;-60
2023/06/07 02:58:02;;;;;;;;;;;;;;;20.22;68.73;97151.18;618889;229;65015;-60
2023/06/07 03:00:32;;;;;;;;;;;;;;;20.21;68.78;97146.89;618890;228;45630;-61
2023/06/07 03:03:05;;;;;;;;;;;;;;;20.21;68.78;97145.02;618811;228;47130;-60
2023/06/07 03:05:31;;;;;;;;;;;;;;;20.21;68.76;97141.55;618818;228;63000;-61
2023/06/07 03:08:00;;;;;;;;;;;;;;;20.21;68.75;97136.22;618878;228;46163;-60
2023/06/07 03:10:28;;;;;;;;;;;;;;;20.21;68.75;97136.22;618845;229;67488;-60
2023/06/07 03:12:56;;;;;;;;;;;;;;;20.21;68.74;97141.55;618716;229;65815;-59
2023/06/07 03:15:24;;;;;;;;;;;;;;;20.21;68.74;97138.88;618851;229;67780;-60
2023/06/07 03:17:51;;;;;;;;;;;;;;;20.21;68.73;97138.88;618846;229;67510;-59
2023/06/07 03:20:20;;;;;;;;;;;;;;;20.20;68.71;97137.29;618860;229;65156;-59
2023/06/07 03:22:48;;;;;;;;;;;;;;;20.20;68.71;97135.42;618901;229;66973;-59
2023/06/07 03:25:16;;;;;;;;;;;;;;;20.21;68.71;97146.89;618832;229;66748;-59
2023/06/07 03:27:45;;;;;;;;;;;;;;;20.21;68.71;97138.88;618882;229;62507;-59
2023/06/07 03:30:17;;;;;;;;;;;;;;;20.20;68.72;97130.08;618199;228;48004;-60
2023/06/07 03:32:45;;;;;;;;;;;;;;;20.20;68.71;97123.95;618868;229;66769;-60
2023/06/07 03:35:13;;;;;;;;;;;;;;;20.20;68.72;97121.28;618877;229;64918;-60
2023/06/07 03:37:41;;;;;;;;;;;;;;;20.19;68.68;97128.48;618862;229;66883;-60
2023/06/07 03:40:09;;;;;;;;;;;;;;;20.20;68.68;97118.61;618849;229;64335;-60
2023/06/07 03:42:37;;;;;;;;;;;;;;;20.20;68.64;97119.41;618893;229;65214;-60
2023/06/07 03:45:06;;;;;;;;;;;;;;;20.20;68.65;97123.95;618838;229;67500;-60
2023/06/07 03:47:34;;;;;;;;;;;;;;;20.20;68.62;97118.61;618878;228;65575;-60
2023/06/07 03:50:02;;;;;;;;;;;;;;;20.19;68.59;97120.48;618854;229;64942;-60
2023/06/07 03:52:31;;;;;;;;;;;;;;;20.18;68.59;97122.33;618812;229;65750;-63
2023/06/07 03:54:58;;;;;;;;;;;;;;;20.18;68.62;97116.98;618812;229;67239;-63
2023/06/07 03:57:27;;;;;;;;;;;;;;;20.20;68.62;97123.95;618869;229;65672;-63
2023/06/07 03:59:55;;;;;;;;;;;;;;;20.18;68.62;97119.66;618852;229;67745;-63
2023/06/07 04:02:22;;;;;;;;;;;;;;;20.18;68.63;97122.33;618828;229;65862;-63
2023/06/07 04:04:52;;;;;;;;;;;;;;;20.19;68.64;97120.48;618854;229;62650;-63
2023/06/07 04:07:19;;;;;;;;;;;;;;;20.18;68.66;97116.98;618849;229;67746;-64
2023/06/07 04:09:48;;;;;;;;;;;;;;;20.19;68.67;97120.48;618827;229;67124;-63
2023/06/07 04:12:17;;;;;;;;;;;;;;;20.18;68.66;97114.32;618778;229;64970;-63
2023/06/07 04:14:45;;;;;;;;;;;;;;;20.18;68.70;97110.86;618847;229;67207;-63
2023/06/07 04:17:13;;;;;;;;;;;;;;;20.18;68.70;97110.86;614372;229;68386;-64
2023/06/07 04:19:40;;;;;;;;;;;;;;;20.18;68.72;97114.32;618774;227;65543;-64
2023/06/07 04:22:08;;;;;;;;;;;;;;;20.18;68.71;97105.52;618862;229;66031;-64
2023/06/07 04:24:36;;;;;;;;;;;;;;;20.18;68.70;97113.52;618834;229;65642;-63
2023/06/07 04:27:10;;;;;;;;;;;;;;;20.17;68.70;97110.06;618836;229;62643;-64
2023/06/07 04:29:33;;;;;;;;;;;;;;;20.19;68.71;97117.81;618661;228;67262;-63
2023/06/07 04:32:01;;;;;;;;;;;;;;;20.17;68.73;97110.06;618799;229;67870;-64
2023/06/07 04:34:32;;;;;;;;;;;;;;;20.18;68.74;97108.19;618828;229;63002;-64
2023/06/07 04:37:03;;;;;;;;;;;;;;;20.17;68.74;97110.06;618860;229;64514;-63
2023/06/07 04:39:28;;;;;;;;;;;;;;;20.17;68.74;97115.40;618806;228;65180;-64
2023/06/07 04:41:56;;;;;;;;;;;;;;;20.18;68.77;97113.52;618846;229;62635;-63
2023/06/07 04:44:30;;;;;;;;;;;;;;;20.18;68.77;97110.86;618796;229;65115;-64
2023/06/07 04:47:00;;;;;;;;;;;;;;;20.17;68.78;97110.06;618633;228;47951;-64
2023/06/07 04:49:28;;;;;;;;;;;;;;;20.17;68.80;97110.06;618843;229;65832;-64
2023/06/07 04:51:57;;;;;;;;;;;;;;;20.17;68.79;97115.40;618832;229;67953;-64
2023/06/07 04:54:28;;;;;;;;;;;;;;;20.17;68.77;97119.94;618829;229;65786;-64
2023/06/07 04:57:00;;;;;;;;;;;;;;;20.16;68.79;97124.48;618810;229;65631;-64
2023/06/07 04:59:34;;;;;;;;;;;;;;;20.17;68.83;97119.94;618833;229;67146;-64
2023/06/07 05:01:58;;;;;;;;;;;;;;;20.16;68.85;97116.47;618697;228;67251;-64
2023/06/07 05:04:25;;;;;;;;;;;;;;;20.17;68.87;97119.94;618821;229;64498;-64
2023/06/07 05:06:58;;;;;;;;;;;;;;;20.17;68.87;97122.61;618875;228;44523;-64
2023/06/07 05:09:24;;;;;;;;;;;;;;;20.17;68.88;97119.94;618760;229;67391;-64
2023/06/07 05:11:52;;;;;;;;;;;;;;;20.16;68.90;97113.80;618821;229;62132;-64
2023/06/07 05:14:19;;;;;;;;;;;;;;;20.16;68.92;97120.98;618813;229;67292;-64
2023/06/07 05:16:48;;;;;;;;;;;;;;;20.16;68.92;97121.81;618849;229;67043;-64
2023/06/07 05:19:18;;;;;;;;;;;;;;;20.17;68.96;97117.27;618860;228;44675;-64
2023/06/07 05:21:46;;;;;;;;;;;;;;;20.16;68.97;97115.64;618792;229;66898;-64
2023/06/07 05:24:13;;;;;;;;;;;;;;;20.16;68.96;97121.81;618771;229;65029;-64
2023/06/07 05:26:41;;;;;;;;;;;;;;;20.17;68.97;97119.94;618792;229;62507;-64
2023/06/07 05:29:12;;;;;;;;;;;;;;;20.15;68.98;97117.52;618801;229;66924;-64
2023/06/07 05:31:39;;;;;;;;;;;;;;;20.15;68.99;97114.85;618852;229;67650;-64
2023/06/07 05:34:07;;;;;;;;;;;;;;;20.16;69.00;97113.80;618804;229;65102;-64
2023/06/07 05:36:35;;;;;;;;;;;;;;;20.17;69.05;97111.93;618728;229;67355;-64
2023/06/07 05:39:03;;;;;;;;;;;;;;;20.17;69.03;97117.27;618778;229;64417;-64
2023/06/07 05:41:31;;;;;;;;;;;;;;;20.16;69.03;97116.47;618774;229;62736;-64
2023/06/07 05:43:58;;;;;;;;;;;;;;;20.16;69.03;97118.31;618806;227;67687;-64
2023/06/07 05:46:26;;;;;;;;;;;;;;;20.15;69.05;97120.19;618831;229;64510;-64
2023/06/07 05:48:54;;;;;;;;;;;;;;;20.17;69.05;97119.94;618797;229;63052;-64
2023/06/07 05:51:23;;;;;;;;;;;;;;;20.15;69.06;97122.85;618795;229;67571;-64
2023/06/07 05:53:52;;;;;;;;;;;;;;;20.16;69.08;97119.14;618839;228;50947;-64
2023/06/07 05:56:21;;;;;;;;;;;;;;;20.16;69.09;97119.14;618778;229;63772;-64
2023/06/07 05:58:49;;;;;;;;;;;;;;;20.16;69.13;97121.81;618748;229;64853;-64
2023/06/07 06:01:17;;;;;;;;;;;;;;;20.16;69.13;97112.98;618715;229;67078;-64
2023/06/07 06:03:45;;;;;;;;;;;;;;;20.15;69.24;97114.85;618246;229;65096;-64
2023/06/07 06:06:19;;;;;;;;;;;;;;;20.16;69.30;97118.31;618787;229;64950;-64
2023/06/07 06:08:43;;;;;;;;;;;;;;;20.16;69.40;97120.98;618574;228;64931;-63
2023/06/07 06:11:12;;;;;;;;;;;;;;;20.14;69.01;97123.93;618750;229;65036;-63
2023/06/07 06:13:40;;;;;;;;;;;;;;;20.15;69.42;97117.52;625614;226;67258;-62
2023/06/07 06:16:07;;;;;;;;;;;;;;;20.16;69.29;97121.81;625866;226;65584;-62
2023/06/07 06:18:35;;;;;;;;;;;;;;;20.16;69.30;97118.31;625879;226;64964;-61
2023/06/07 06:21:03;;;;;;;;;;;;;;;20.16;69.25;97113.80;625879;226;67146;-62
2023/06/07 06:23:30;;;;;;;;;;;;;;;20.17;69.32;97115.40;625852;226;65333;-64
2023/06/07 06:25:58;;;;;;;;;;;;;;;20.16;69.18;97113.80;625900;226;65171;-61
2023/06/07 06:28:25;;;;;;;;;;;;;;;20.17;69.19;97115.40;625907;226;67190;-61
2023/06/07 06:30:53;;;;;;;;;;;;;;;20.18;69.22;97110.86;625785;226;67069;-64
2023/06/07 06:33:20;;;;;;;;;;;;;;;20.18;69.21;97114.32;625888;226;66420;-64
2023/06/07 06:35:48;;;;;;;;;;;;;;;20.19;69.20;97117.81;625897;226;67171;-64
2023/06/07 06:38:17;;;;;;;;;;;;;;;20.18;69.26;97114.32;625894;226;64941;-64
2023/06/07 06:40:46;;;;;;;;;;;;;;;20.19;69.22;97120.48;625991;225;44992;-65
2023/06/07 06:43:14;;;;;;;;;;;;;;;20.20;69.13;97118.61;625823;226;65726;-64
2023/06/07 06:45:44;;;;;;;;;;;;;;;20.20;69.18;97115.94;625805;226;45065;-63
2023/06/07 06:48:11;;;;;;;;;;;;;;;20.21;69.18;97120.20;625836;226;65314;-62
2023/06/07 06:50:39;;;;;;;;;;;;;;;20.21;69.17;97122.88;625940;226;67413;-62
2023/06/07 06:53:06;;;;;;;;;;;;;;;20.22;69.17;97113.82;625763;226;66830;-60
2023/06/07 06:55:34;;;;;;;;;;;;;;;20.21;69.17;97107.66;625893;226;63031;-60
2023/06/07 06:58:02;;;;;;;;;;;;;;;20.21;69.09;97115.66;625878;226;67172;-61
2023/06/07 07:00:31;;;;;;;;;;;;;;;20.22;69.10;97111.16;625843;226;64915;-60
2023/06/07 07:02:58;;;;;;;;;;;;;;;20.22;69.07;97111.16;625856;226;65060;-60
2023/06/07 07:05:26;;;;;;;;;;;;;;;20.22;69.04;97109.28;625892;226;67168;-60
2023/06/07 07:07:53;;;;;;;;;;;;;;;20.23;69.07;97107.41;625813;226;66886;-60
2023/06/07 07:10:21;;;;;;;;;;;;;;;20.24;68.68;97103.66;625854;226;65041;-60
2023/06/07 07:12:48;;;;;;;;;;;;;;;20.26;69.02;97112.22;625470;226;64952;-59
2023/06/07 07:15:15;;;;;;;;;;;;;;;20.24;68.96;97104.46;624702;227;67020;-60
2023/06/07 07:17:47;;;;;;;;;;;;;;;20.25;69.03;97099.95;624746;227;63385;-60
2023/06/07 07:20:16;;;;;;;;;;;;;;;20.25;69.06;97103.41;624630;227;65857;-61
2023/06/07 07:22:45;;;;;;;;;;;;;;;20.25;69.10;97105.28;624697;227;65256;-61
2023/06/07 07:25:13;;;;;;;;;;;;;;;20.26;69.12;97106.88;624710;227;65172;-62
2023/06/07 07:27:41;;;;;;;;;;;;;;;20.26;69.19;97115.68;624718;227;65074;-61
2023/06/07 07:30:09;;;;;;;;;;;;;;;20.26;69.20;97109.55;624833;227;65118;-60
2023/06/07 07:32:37;;;;;;;;;;;;;;;20.25;69.29;97113.30;624789;227;65062;-61
2023/06/07 07:35:04;;;;;;;;;;;;;;;20.26;69.31;97109.55;624667;227;66851;-60
2023/06/07 07:37:32;;;;;;;;;;;;;;;20.26;69.34;97113.02;624691;227;67125;-60
2023/06/07 07:40:00;;;;;;;;;;;;;;;20.27;69.36;97113.80;624741;227;62633;-59
2023/06/07 07:42:27;;;;;;;;;;;;;;;20.27;69.39;97119.14;624723;227;66726;-59
2023/06/07 07:44:55;;;;;;;;;;;;;;;20.27;69.46;97116.47;621568;227;66549;-59
2023/06/07 07:47:22;;;;;;;;;;;;;;;20.28;69.52;97121.56;617657;229;65043;-59
2023/06/07 07:49:51;;;;;;;;;;;;;;;20.27;69.55;97119.14;617548;229;64712;-59
2023/06/07 07:52:19;;;;;;;;;;;;;;;20.27;69.63;97119.97;617612;229;67066;-60
2023/06/07 07:54:47;;;;;;;;;;;;;;;20.27;69.59;97113.80;617599;229;65121;-60
2023/06/07 07:57:14;;;;;;;;;;;;;;;20.28;69.65;97118.09;617547;229;66743;-60
2023/06/07 07:59:43;;;;;;;;;;;;;;;20.27;69.64;97117.30;617650;229;64954;-60
2023/06/07 08:02:11;;;;;;;;;;;;;;;20.28;69.67;97123.44;617568;229;64903;-59
2023/06/07 08:04:38;;;;;;;;;;;;;;;20.28;69.70;97123.44;617552;229;67427;-59
2023/06/07 08:07:06;;;;;;;;;;;;;;;20.28;69.69;97120.77;617606;229;64833;-60
2023/06/07 08:09:33;;;;;;;;;;;;;;;20.28;69.71;97118.89;617689;229;62907;-62
2023/06/07 08:12:01;;;;;;;;;;;;;;;20.28;69.73;97126.11;617604;229;65060;-63
2023/06/07 08:14:28;;;;;;;;;;;;;;;20.28;69.79;97123.44;617635;229;66998;-63
2023/06/07 08:16:56;;;;;;;;;;;;;;;20.29;69.79;97119.69;617564;229;63014;-63
2023/06/07 08:19:23;;;;;;;;;;;;;;;20.30;69.83;97126.66;617642;229;64971;-62
2023/06/07 08:21:51;;;;;;;;;;;;;;;20.33;69.05;97116.24;617696;229;66886;-62
2023/06/07 08:24:19;;;;;;;;;;;;;;;20.35;69.87;97115.96;617593;229;65628;-63
2023/06/07 08:26:48;;;;;;;;;;;;;;;20.37;69.57;97119.17;617591;229;67198;-62
2023/06/07 08:29:15;;;;;;;;;;;;;;;20.38;69.62;97118.92;617616;229;68166;-63
2023/06/07 08:31:43;;;;;;;;;;;;;;;20.41;69.75;97112.26;617553;229;62895;-62
2023/06/07 08:34:10;;;;;;;;;;;;;;;20.43;70.68;97115.44;617667;229;64926;-63
2023/06/07 08:36:44;;;;;;;;;;;;;;;20.45;70.46;97123.20;617652;229;64950;-63
2023/06/07 08:39:08;;;;;;;;;;;;;;;20.47;70.01;97119.20;617376;228;65316;-63
2023/06/07 08:41:36;;;;;;;;;;;;;;;20.51;70.09;97119.47;617644;229;64970;-64
2023/06/07 08:44:03;;;;;;;;;;;;;;;20.50;69.27;97121.34;617610;229;66630;-66
2023/06/07 08:46:32;;;;;;;;;;;;;;;20.55;67.80;97120.58;617566;229;64966;-62
2023/06/07 08:49:00;;;;;;;;;;;;;;;20.55;67.20;97121.38;617646;229;67198;-62
2023/06/07 08:51:29;;;;;;;;;;;;;;;20.57;68.72;97123.77;617613;229;67558;-62
2023/06/07 08:53:58;;;;;;;;;;;;;;;20.58;69.95;97131.52;617526;229;65099;-62
2023/06/07 08:56:27;;;;;;;;;;;;;;;20.58;70.74;97126.19;617556;228;67219;-63
2023/06/07 08:58:54;;;;;;;;;;;;;;;20.59;71.27;97122.44;617512;229;65016;-63
2023/06/07 09:01:23;;;;;;;;;;;;;;;20.60;71.47;97123.27;617579;229;63784;-63
2023/06/07 09:03:52;;;;;;;;;;;;;;;20.60;71.95;97118.72;617618;229;65019;-62
2023/06/07 09:06:24;;;;;;;;;;;;;;;20.59;72.62;97130.45;617489;229;64946;-63
2023/06/07 09:08:52;;;;;;;;;;;;;;;20.60;71.97;97123.27;617568;229;65063;-65
2023/06/07 09:11:19;;;;;;;;;;;;;;;20.60;72.06;97125.94;617543;229;64508;-63
2023/06/07 09:13:47;;;;;;;;;;;;;;;20.60;71.22;97121.39;618372;229;67015;-62
2023/06/07 09:16:15;;;;;;;;;;;;;;;20.62;71.87;97131.78;618738;229;65868;-63
2023/06/07 09:18:44;;;;;;;;;;;;;;;20.64;71.88;97128.86;618707;229;65167;-63
2023/06/07 09:21:21;;;;;;;;;;;;;;;20.61;72.02;97125.66;618600;229;66911;-62
2023/06/07 09:23:49;;;;;;;;;;;;;;;20.63;71.78;97128.07;618638;229;65136;-62
2023/06/07 09:26:17;;;;;;;;;;;;;;;20.63;72.29;97129.95;618697;229;67232;-62
2023/06/07 09:28:50;;;;;;;;;;;;;;;20.64;72.95;97126.20;618707;229;67007;-62
2023/06/07 09:31:16;;;;;;;;;;;;;;;20.64;71.86;97118.19;618471;228;65513;-62
2023/06/07 09:33:46;;;;;;;;;;;;;;;20.64;72.11;97115.52;618046;228;67152;-63
2023/06/07 09:36:15;;;;;;;;;;;;;;;20.64;72.10;97113.64;618598;229;67037;-63
2023/06/07 09:38:42;;;;;;;;;;;;;;;20.65;72.21;97115.23;618713;229;62938;-63
2023/06/07 09:41:10;;;;;;;;;;;;;;;20.66;72.47;97124.07;618739;229;64877;-63
2023/06/07 09:43:40;;;;;;;;;;;;;;;20.66;72.63;97121.40;618638;229;68120;-63
2023/06/07 09:46:07;;;;;;;;;;;;;;;20.66;72.69;97121.40;618649;228;70943;-64
2023/06/07 09:48:45;;;;;;;;;;;;;;;20.66;72.47;97124.07;618734;229;67321;-63
2023/06/07 09:51:13;;;;;;;;;;;;;;;20.65;72.43;97123.24;616804;229;65654;-62
2023/06/07 09:54:05;;;;;;;;;;;;;;;20.65;72.57;97120.57;618752;229;62888;-63
2023/06/07 09:56:32;;;;;;;;;;;;;;;20.66;72.75;97124.07;618719;228;63141;-62
2023/06/07 09:59:06;;;;;;;;;;;;;;;20.66;72.63;97121.40;618740;229;64648;-62
2023/06/07 10:01:35;;;;;;;;;;;;;;;20.68;72.82;97129.92;618697;229;63102;-62
2023/06/07 10:04:03;;;;;;;;;;;;;;;20.66;72.78;97124.07;618688;229;67146;-62
2023/06/07 10:06:37;;;;;;;;;;;;;;;20.66;72.69;97124.86;614249;229;65278;-62
2023/06/07 10:09:03;;;;;;;;;;;;;;;20.66;72.53;97129.41;618454;228;62957;-62
2023/06/07 10:11:34;;;;;;;;;;;;;;;20.67;72.54;97122.98;618726;229;67133;-62
2023/06/07 10:14:06;;;;;;;;;;;;;;;20.67;72.89;97123.78;617837;229;64878;-62
2023/06/07 10:16:40;;;;;;;;;;;;;;;20.66;72.83;97114.19;617652;229;65103;-62
2023/06/07 10:19:05;;;;;;;;;;;;;;;20.67;72.59;97114.98;617358;228;67232;-62
2023/06/07 10:21:34;;;;;;;;;;;;;;;20.66;72.73;97122.20;617609;228;67082;-62
2023/06/07 10:24:04;;;;;;;;;;;;;;;20.67;72.37;97118.45;617648;229;62989;-62
2023/06/07 10:26:51;;;;;;;;;;;;;;;20.67;72.67;97117.65;617603;229;66961;-62
2023/06/07 10:29:30;;;;;;;;;;;;;;;20.67;72.87;97121.11;617558;229;67090;-62
2023/06/07 10:32:00;;;;;;;;;;;;;;;20.67;72.74;97114.98;617608;229;65019;-62
2023/06/07 10:34:28;;;;;;;;;;;;;;;20.67;72.76;97110.44;617446;228;67504;-62
2023/06/07 10:37:01;;;;;;;;;;;;;;;20.67;72.93;97118.45;617633;227;46947;-62
2023/06/07 10:39:28;;;;;;;;;;;;;;;20.67;72.82;97112.31;617606;229;62980;-61
2023/06/07 10:41:57;;;;;;;;;;;;;;;20.68;72.69;97111.23;617643;229;64930;-62
2023/06/07 10:44:25;;;;;;;;;;;;;;;20.68;72.52;97104.05;617643;229;67112;-62
2023/06/07 10:47:10;;;;;;;;;;;;;;;20.70;72.07;97106.44;617533;229;62869;-62
2023/06/07 10:49:38;;;;;;;;;;;;;;;20.71;70.60;97108.05;617655;229;64961;-61
2023/06/07 10:52:06;;;;;;;;;;;;;;;20.72;71.30;97105.09;617615;229;65178;-62
2023/06/07 10:54:37;;;;;;;;;;;;;;;20.73;72.07;97098.68;617579;229;65073;-62
2023/06/07 10:57:04;;;;;;;;;;;;;;;20.73;72.18;97112.03;617586;229;67213;-62
2023/06/07 10:59:32;;;;;;;;;;;;;;;20.73;72.17;97103.22;617563;229;67053;-62
2023/06/07 11:02:17;;;;;;;;;;;;;;;20.73;72.43;97103.22;617518;229;64892;-62
2023/06/07 11:04:52;;;;;;;;;;;;;;;20.72;72.40;97107.77;617663;229;67216;-62
2023/06/07 11:07:22;;;;;;;;;;;;;;;20.72;72.56;97104.30;617633;229;64949;-62
2023/06/07 11:09:50;;;;;;;;;;;;;;;20.72;72.45;97109.64;617566;229;65132;-62
2023/06/07 11:12:22;;;;;;;;;;;;;;;20.72;72.65;97102.43;617667;229;65140;-61
2023/06/07 11:15:08;;;;;;;;;;;;;;;20.72;72.48;97101.63;617266;228;66735;-62
2023/06/07 11:17:52;;;;;;;;;;;;;;;20.71;72.30;97100.84;618759;229;62915;-62
2023/06/07 11:20:40;;;;;;;;;;;;;;;20.71;72.27;97103.51;618652;229;67077;-62
2023/06/07 11:23:26;;;;;;;;;;;;;;;20.72;72.47;97098.96;618656;229;65330;-64
2023/06/07 11:26:08;;;;;;;;;;;;;;;20.71;72.45;97098.17;618760;229;63276;-65
2023/06/07 11:28:37;;;;;;;;;;;;;;;20.69;71.91;97104.84;618718;229;69328;-62
2023/06/07 11:31:06;;;;;;;;;;;;;;;20.70;71.88;97106.44;618723;229;64997;-62
2023/06/07 11:33:34;;;;;;;;;;;;;;;20.72;72.39;97104.30;618755;229;63217;-62
2023/06/07 11:36:09;;;;;;;;;;;;;;;20.71;72.51;97106.17;618688;229;65177;-62
2023/06/07 11:38:32;;;;;;;;;;;;;;;20.71;72.67;97098.17;618464;228;66902;-62
2023/06/07 11:41:00;;;;;;;;;;;;;;;20.74;72.71;97099.50;618714;229;65049;-62
2023/06/07 11:43:31;;;;;;;;;;;;;;;20.73;72.48;97098.68;618668;229;66714;-62
2023/06/07 11:45:59;;;;;;;;;;;;;;;20.73;72.52;97093.34;618737;229;64840;-62
2023/06/07 11:48:28;;;;;;;;;;;;;;;20.75;72.51;97093.08;618622;229;65072;-62
2023/06/07 11:50:56;;;;;;;;;;;;;;;20.74;72.24;97086.95;618672;229;66285;-62
2023/06/07 11:53:28;;;;;;;;;;;;;;;20.75;72.57;97087.74;618716;229;64781;-62
2023/06/07 11:55:53;;;;;;;;;;;;;;;20.76;72.34;97089.33;618663;228;62913;-61
2023/06/07 11:58:21;;;;;;;;;;;;;;;20.76;72.34;97092.00;618773;229;64683;-62
2023/06/07 12:00:48;;;;;;;;;;;;;;;20.76;72.51;97092.83;618784;229;66759;-62
2023/06/07 12:03:19;;;;;;;;;;;;;;;20.76;72.32;97098.17;618670;229;63026;-63
2023/06/07 12:05:46;;;;;;;;;;;;;;;20.77;72.42;97090.95;618659;228;67156;-63
2023/06/07 12:08:16;;;;;;;;;;;;;;;20.78;72.48;97095.22;618728;229;67219;-62
2023/06/07 12:10:46;;;;;;;;;;;;;;;20.77;72.23;97085.61;618788;229;65673;-62
2023/06/07 12:13:14;;;;;;;;;;;;;;;20.77;72.43;97083.73;618418;228;67247;-61
2023/06/07 12:15:49;;;;;;;;;;;;;;;20.79;72.36;97078.14;618760;229;67051;-61
2023/06/07 12:18:18;;;;;;;;;;;;;;;20.78;72.40;97079.98;618746;229;64989;-62
2023/06/07 12:20:47;;;;;;;;;;;;;;;20.79;72.40;97083.48;618676;229;67209;-63
2023/06/07 12:23:15;;;;;;;;;;;;;;;20.79;72.30;97078.94;618758;229;67006;-62
2023/06/07 12:25:43;;;;;;;;;;;;;;;20.79;72.40;97070.92;618735;229;62888;-64
2023/06/07 12:28:16;;;;;;;;;;;;;;;20.79;72.36;97070.92;618617;229;65076;-63
2023/06/07 12:30:41;;;;;;;;;;;;;;;20.78;72.49;97068.52;618589;228;64761;-63
2023/06/07 12:33:16;;;;;;;;;;;;;;;20.79;71.98;97068.25;618532;229;63007;-63
2023/06/07 12:35:47;;;;;;;;;;;;;;;20.79;72.42;97060.24;618724;229;67275;-63
2023/06/07 12:38:15;;;;;;;;;;;;;;;20.80;72.36;97066.37;618554;229;67378;-63
2023/06/07 12:40:42;;;;;;;;;;;;;;;20.80;72.30;97069.05;618680;229;64863;-63
2023/06/07 12:43:10;;;;;;;;;;;;;;;20.81;72.56;97062.62;618241;229;64965;-63
2023/06/07 12:45:38;;;;;;;;;;;;;;;20.81;72.17;97066.09;617820;229;67860;-63
2023/06/07 12:48:05;;;;;;;;;;;;;;;20.80;72.04;97066.37;618571;229;65084;-63
2023/06/07 12:50:33;;;;;;;;;;;;;;;20.81;72.22;97060.75;618766;229;67207;-63
2023/06/07 12:53:01;;;;;;;;;;;;;;;20.81;72.49;97054.61;618666;229;64989;-63
2023/06/07 12:55:28;;;;;;;;;;;;;;;20.82;72.16;97050.89;618668;229;63004;-63
2023/06/07 12:57:56;;;;;;;;;;;;;;;20.81;72.34;97052.73;618684;229;66895;-63